sensor_id;sensor_type;location;lat;lon;timestamp;temperature;humidity
55151;DHT22;41041;43.162;20.538;2023-08-30T00:00:54;461.40;2380.80
55151;DHT22;41041;43.162;20.538;2023-08-30T00:03:20;461.30;2380.80
55151;DHT22;41041;43.162;20.538;2023-08-30T00:05:46;461.30;2380.80
55151;DHT22;41041;43.162;20.538;2023-08-30T00:08:12;461.10;2380.80
55151;DHT22;41041;43.162;20.538;2023-08-30T00:13:08;461.00;2380.80
55151;DHT22;41041;43.162;20.538;2023-08-30T00:15:39;460.80;2380.80
55151;DHT22;41041;43.162;20.538;2023-08-30T00:18:04;461.00;2380.80
55151;DHT22;41041;43.162;20.538;2023-08-30T00:20:31;461.10;2380.80
55151;DHT22;41041;43.162;20.538;2023-08-30T00:22:57;461.10;2380.80
55151;DHT22;41041;43.162;20.538;2023-08-30T00:25:23;460.90;2380.80
55151;DHT22;41041;43.162;20.538;2023-08-30T00:27:49;436.10;2355.20
55151;DHT22;41041;43.162;20.538;2023-08-30T00:30:15;436.00;2355.20
55151;DHT22;41041;43.162;20.538;2023-08-30T00:32:40;435.90;2355.20
55151;DHT22;41041;43.162;20.538;2023-08-30T00:35:06;460.80;2380.80
55151;DHT22;41041;43.162;20.538;2023-08-30T00:37:32;460.80;2380.80
55151;DHT22;41041;43.162;20.538;2023-08-30T00:39:59;436.10;2355.20
55151;DHT22;41041;43.162;20.538;2023-08-30T00:42:27;436.10;2355.20
55151;DHT22;41041;43.162;20.538;2023-08-30T00:44:53;460.80;2380.80
55151;DHT22;41041;43.162;20.538;2023-08-30T00:47:19;461.00;2380.80
55151;DHT22;41041;43.162;20.538;2023-08-30T00:49:45;460.80;2380.80
55151;DHT22;41041;43.162;20.538;2023-08-30T00:52:11;436.00;2355.20
55151;DHT22;41041;43.162;20.538;2023-08-30T00:54:38;436.10;2355.20
55151;DHT22;41041;43.162;20.538;2023-08-30T00:57:04;436.10;2355.20
55151;DHT22;41041;43.162;20.538;2023-08-30T01:11:59;435.80;2355.20
55151;DHT22;41041;43.162;20.538;2023-08-30T01:17:17;435.70;2355.20
55151;DHT22;41041;43.162;20.538;2023-08-30T01:20:01;435.90;2355.20
55151;DHT22;41041;43.162;20.538;2023-08-30T01:23:42;436.00;2355.20
55151;DHT22;41041;43.162;20.538;2023-08-30T01:26:13;435.90;2355.20
55151;DHT22;41041;43.162;20.538;2023-08-30T01:28:41;435.70;2355.20
55151;DHT22;41041;43.162;20.538;2023-08-30T01:31:08;435.60;2355.20
55151;DHT22;41041;43.162;20.538;2023-08-30T01:33:37;435.70;2355.20
55151;DHT22;41041;43.162;20.538;2023-08-30T01:36:03;435.70;2355.20
55151;DHT22;41041;43.162;20.538;2023-08-30T01:38:31;435.90;2355.20
55151;DHT22;41041;43.162;20.538;2023-08-30T01:40:59;435.70;2355.20
55151;DHT22;41041;43.162;20.538;2023-08-30T01:43:29;435.70;2355.20
55151;DHT22;41041;43.162;20.538;2023-08-30T01:48:23;460.80;2380.80
55151;DHT22;41041;43.162;20.538;2023-08-30T01:50:50;436.10;2355.20
55151;DHT22;41041;43.162;20.538;2023-08-30T01:55:43;436.10;2355.20
55151;DHT22;41041;43.162;20.538;2023-08-30T01:58:09;435.80;2355.20
55151;DHT22;41041;43.162;20.538;2023-08-30T02:00:36;435.70;2355.20
55151;DHT22;41041;43.162;20.538;2023-08-30T02:03:09;435.60;2355.20
55151;DHT22;41041;43.162;20.538;2023-08-30T02:05:39;435.90;2355.20
55151;DHT22;41041;43.162;20.538;2023-08-30T02:08:16;435.80;2355.20
55151;DHT22;41041;43.162;20.538;2023-08-30T02:11:07;435.90;2355.20
55151;DHT22;41041;43.162;20.538;2023-08-30T02:13:33;435.80;2355.20
55151;DHT22;41041;43.162;20.538;2023-08-30T02:16:01;436.00;2355.20
55151;DHT22;41041;43.162;20.538;2023-08-30T02:18:27;436.00;2355.20
55151;DHT22;41041;43.162;20.538;2023-08-30T02:20:54;436.00;2355.20
55151;DHT22;41041;43.162;20.538;2023-08-30T02:23:25;436.00;2355.20
55151;DHT22;41041;43.162;20.538;2023-08-30T02:25:51;436.00;2355.20
55151;DHT22;41041;43.162;20.538;2023-08-30T02:28:17;435.90;2355.20
55151;DHT22;41041;43.162;20.538;2023-08-30T02:30:53;435.70;2355.20
55151;DHT22;41041;43.162;20.538;2023-08-30T02:33:19;435.50;2355.20
55151;DHT22;41041;43.162;20.538;2023-08-30T02:35:45;435.50;2355.20
55151;DHT22;41041;43.162;20.538;2023-08-30T02:38:11;435.50;2355.20
55151;DHT22;41041;43.162;20.538;2023-08-30T02:40:36;435.40;2355.20
55151;DHT22;41041;43.162;20.538;2023-08-30T02:43:02;435.40;2355.20
55151;DHT22;41041;43.162;20.538;2023-08-30T02:45:28;435.30;2355.20
55151;DHT22;41041;43.162;20.538;2023-08-30T02:47:57;435.50;2355.20
55151;DHT22;41041;43.162;20.538;2023-08-30T02:50:24;435.60;2355.20
55151;DHT22;41041;43.162;20.538;2023-08-30T02:52:50;435.40;2355.20
55151;DHT22;41041;43.162;20.538;2023-08-30T02:55:16;435.50;2355.20
55151;DHT22;41041;43.162;20.538;2023-08-30T02:57:43;435.40;2355.20
55151;DHT22;41041;43.162;20.538;2023-08-30T03:00:09;435.40;2355.20
55151;DHT22;41041;43.162;20.538;2023-08-30T03:02:35;435.30;2355.20
55151;DHT22;41041;43.162;20.538;2023-08-30T03:05:01;435.20;2355.20
55151;DHT22;41041;43.162;20.538;2023-08-30T03:07:28;435.30;2355.20
55151;DHT22;41041;43.162;20.538;2023-08-30T03:09:54;435.30;2355.20
55151;DHT22;41041;43.162;20.538;2023-08-30T03:12:20;435.50;2355.20
55151;DHT22;41041;43.162;20.538;2023-08-30T03:14:56;435.70;2355.20
55151;DHT22;41041;43.162;20.538;2023-08-30T03:17:22;435.50;2355.20
55151;DHT22;41041;43.162;20.538;2023-08-30T03:19:50;435.90;2355.20
55151;DHT22;41041;43.162;20.538;2023-08-30T03:22:16;435.80;2355.20
55151;DHT22;41041;43.162;20.538;2023-08-30T03:24:42;435.60;2355.20
55151;DHT22;41041;43.162;20.538;2023-08-30T03:27:08;435.30;2355.20
55151;DHT22;41041;43.162;20.538;2023-08-30T03:29:33;435.70;2355.20
55151;DHT22;41041;43.162;20.538;2023-08-30T03:31:59;435.60;2355.20
55151;DHT22;41041;43.162;20.538;2023-08-30T03:34:25;435.60;2355.20
55151;DHT22;41041;43.162;20.538;2023-08-30T03:36:51;435.60;2355.20
55151;DHT22;41041;43.162;20.538;2023-08-30T03:39:20;435.50;2355.20
55151;DHT22;41041;43.162;20.538;2023-08-30T03:41:46;435.50;2355.20
55151;DHT22;41041;43.162;20.538;2023-08-30T03:44:12;435.40;2355.20
55151;DHT22;41041;43.162;20.538;2023-08-30T03:46:38;435.70;2355.20
55151;DHT22;41041;43.162;20.538;2023-08-30T03:49:03;435.90;2355.20
55151;DHT22;41041;43.162;20.538;2023-08-30T03:51:30;436.00;2355.20
55151;DHT22;41041;43.162;20.538;2023-08-30T03:53:55;436.00;2355.20
55151;DHT22;41041;43.162;20.538;2023-08-30T03:56:22;436.00;2355.20
55151;DHT22;41041;43.162;20.538;2023-08-30T03:58:48;435.90;2355.20
55151;DHT22;41041;43.162;20.538;2023-08-30T04:01:14;435.90;2355.20
55151;DHT22;41041;43.162;20.538;2023-08-30T04:03:40;435.70;2355.20
55151;DHT22;41041;43.162;20.538;2023-08-30T04:06:06;435.60;2355.20
55151;DHT22;41041;43.162;20.538;2023-08-30T04:08:32;435.70;2355.20
55151;DHT22;41041;43.162;20.538;2023-08-30T04:10:58;435.70;2355.20
55151;DHT22;41041;43.162;20.538;2023-08-30T04:13:24;435.80;2355.20
55151;DHT22;41041;43.162;20.538;2023-08-30T04:15:52;435.70;2355.20
55151;DHT22;41041;43.162;20.538;2023-08-30T04:18:18;435.90;2355.20
55151;DHT22;41041;43.162;20.538;2023-08-30T04:20:45;435.80;2355.20
55151;DHT22;41041;43.162;20.538;2023-08-30T04:23:12;435.70;2355.20
55151;DHT22;41041;43.162;20.538;2023-08-30T04:25:38;435.70;2355.20
55151;DHT22;41041;43.162;20.538;2023-08-30T04:28:04;435.70;2355.20
55151;DHT22;41041;43.162;20.538;2023-08-30T04:30:31;435.70;2355.20
55151;DHT22;41041;43.162;20.538;2023-08-30T04:32:56;436.00;2355.20
55151;DHT22;41041;43.162;20.538;2023-08-30T04:35:22;436.00;2355.20
55151;DHT22;41041;43.162;20.538;2023-08-30T04:37:48;435.90;2355.20
55151;DHT22;41041;43.162;20.538;2023-08-30T04:40:14;436.00;2355.20
55151;DHT22;41041;43.162;20.538;2023-08-30T04:42:40;436.10;2355.20
55151;DHT22;41041;43.162;20.538;2023-08-30T04:45:06;435.90;2355.20
55151;DHT22;41041;43.162;20.538;2023-08-30T04:47:33;435.80;2355.20
55151;DHT22;41041;43.162;20.538;2023-08-30T04:49:59;435.90;2355.20
55151;DHT22;41041;43.162;20.538;2023-08-30T04:52:27;436.10;2355.20
55151;DHT22;41041;43.162;20.538;2023-08-30T04:54:53;436.00;2355.20
55151;DHT22;41041;43.162;20.538;2023-08-30T04:57:19;436.00;2355.20
55151;DHT22;41041;43.162;20.538;2023-08-30T04:59:45;436.10;2355.20
55151;DHT22;41041;43.162;20.538;2023-08-30T05:02:11;436.00;2355.20
55151;DHT22;41041;43.162;20.538;2023-08-30T05:04:37;436.00;2355.20
55151;DHT22;41041;43.162;20.538;2023-08-30T05:07:03;436.00;2355.20
55151;DHT22;41041;43.162;20.538;2023-08-30T05:09:32;435.90;2355.20
55151;DHT22;41041;43.162;20.538;2023-08-30T05:11:58;436.00;2355.20
55151;DHT22;41041;43.162;20.538;2023-08-30T05:14:24;436.10;2355.20
55151;DHT22;41041;43.162;20.538;2023-08-30T05:16:50;460.80;2380.80
55151;DHT22;41041;43.162;20.538;2023-08-30T05:19:16;461.10;2380.80
55151;DHT22;41041;43.162;20.538;2023-08-30T05:21:43;461.00;2380.80
55151;DHT22;41041;43.162;20.538;2023-08-30T05:24:09;461.20;2380.80
55151;DHT22;41041;43.162;20.538;2023-08-30T05:26:35;461.50;2380.80
55151;DHT22;41041;43.162;20.538;2023-08-30T05:29:02;461.30;2380.80
55151;DHT22;41041;43.162;20.538;2023-08-30T05:31:28;461.10;2380.80
55151;DHT22;41041;43.162;20.538;2023-08-30T05:33:54;461.10;2380.80
55151;DHT22;41041;43.162;20.538;2023-08-30T05:36:19;461.20;2380.80
55151;DHT22;41041;43.162;20.538;2023-08-30T05:41:12;461.30;2380.80
55151;DHT22;41041;43.162;20.538;2023-08-30T05:43:38;461.40;2380.80
55151;DHT22;41041;43.162;20.538;2023-08-30T05:46:03;461.30;2380.80
55151;DHT22;41041;43.162;20.538;2023-08-30T05:48:30;461.30;2380.80
55151;DHT22;41041;43.162;20.538;2023-08-30T05:50:56;461.40;2380.80
55151;DHT22;41041;43.162;20.538;2023-08-30T05:53:23;461.60;2380.80
55151;DHT22;41041;43.162;20.538;2023-08-30T05:55:49;461.60;2380.80
55151;DHT22;41041;43.162;20.538;2023-08-30T05:58:15;461.60;2380.80
55151;DHT22;41041;43.162;20.538;2023-08-30T06:00:41;461.60;2380.80
55151;DHT22;41041;43.162;20.538;2023-08-30T06:03:07;461.70;2380.80
55151;DHT22;41041;43.162;20.538;2023-08-30T06:05:34;486.40;2380.80
55151;DHT22;41041;43.162;20.538;2023-08-30T06:08:00;486.60;2380.80
55151;DHT22;41041;43.162;20.538;2023-08-30T06:10:27;486.60;2380.80
55151;DHT22;41041;43.162;20.538;2023-08-30T06:12:53;486.60;2380.80
55151;DHT22;41041;43.162;20.538;2023-08-30T06:15:19;486.70;2380.80
55151;DHT22;41041;43.162;20.538;2023-08-30T06:17:45;486.70;2380.80
55151;DHT22;41041;43.162;20.538;2023-08-30T06:20:12;486.60;2380.80
55151;DHT22;41041;43.162;20.538;2023-08-30T06:22:57;486.60;2380.80
55151;DHT22;41041;43.162;20.538;2023-08-30T06:25:23;486.60;2380.80
55151;DHT22;41041;43.162;20.538;2023-08-30T06:27:57;486.70;2380.80
55151;DHT22;41041;43.162;20.538;2023-08-30T06:30:52;486.70;2380.80
55151;DHT22;41041;43.162;20.538;2023-08-30T06:33:18;486.80;2380.80
55151;DHT22;41041;43.162;20.538;2023-08-30T06:35:43;486.90;2380.80
55151;DHT22;41041;43.162;20.538;2023-08-30T06:38:09;487.00;2380.80
55151;DHT22;41041;43.162;20.538;2023-08-30T06:40:36;487.10;2380.80
55151;DHT22;41041;43.162;20.538;2023-08-30T06:43:01;487.20;2380.80
55151;DHT22;41041;43.162;20.538;2023-08-30T06:45:29;487.20;2380.80
55151;DHT22;41041;43.162;20.538;2023-08-30T06:47:54;487.20;2380.80
55151;DHT22;41041;43.162;20.538;2023-08-30T06:50:20;487.20;2380.80
55151;DHT22;41041;43.162;20.538;2023-08-30T06:52:46;512.00;2380.80
55151;DHT22;41041;43.162;20.538;2023-08-30T06:55:12;512.00;2380.80
55151;DHT22;41041;43.162;20.538;2023-08-30T06:57:37;512.10;2380.80
55151;DHT22;41041;43.162;20.538;2023-08-30T07:00:04;512.30;2380.80
55151;DHT22;41041;43.162;20.538;2023-08-30T07:02:37;512.30;2380.80
55151;DHT22;41041;43.162;20.538;2023-08-30T07:09:57;512.70;2380.80
55151;DHT22;41041;43.162;20.538;2023-08-30T07:12:23;512.50;2380.80
55151;DHT22;41041;43.162;20.538;2023-08-30T07:14:49;512.60;2380.80
55151;DHT22;41041;43.162;20.538;2023-08-30T07:17:14;512.70;2380.80
55151;DHT22;41041;43.162;20.538;2023-08-30T07:19:40;512.90;2380.80
55151;DHT22;41041;43.162;20.538;2023-08-30T07:22:06;537.70;2406.40
55151;DHT22;41041;43.162;20.538;2023-08-30T07:24:32;537.80;2406.40
55151;DHT22;41041;43.162;20.538;2023-08-30T07:26:57;537.90;2406.40
55151;DHT22;41041;43.162;20.538;2023-08-30T07:29:23;538.00;2406.40
55151;DHT22;41041;43.162;20.538;2023-08-30T07:31:49;538.30;2406.40
55151;DHT22;41041;43.162;20.538;2023-08-30T07:34:17;538.40;2406.40
55151;DHT22;41041;43.162;20.538;2023-08-30T07:36:42;538.50;2406.40
55151;DHT22;41041;43.162;20.538;2023-08-30T07:39:10;563.30;2432.00
55151;DHT22;41041;43.162;20.538;2023-08-30T07:41:36;563.40;2432.00
55151;DHT22;41041;43.162;20.538;2023-08-30T07:44:02;563.50;2432.00
55151;DHT22;41041;43.162;20.538;2023-08-30T07:46:38;563.80;2432.00
55151;DHT22;41041;43.162;20.538;2023-08-30T07:49:04;564.00;2432.00
55151;DHT22;41041;43.162;20.538;2023-08-30T07:51:30;563.90;2432.00
55151;DHT22;41041;43.162;20.538;2023-08-30T07:54:00;563.90;2432.00
55151;DHT22;41041;43.162;20.538;2023-08-30T07:56:25;588.90;2432.00
55151;DHT22;41041;43.162;20.538;2023-08-30T07:58:51;564.10;2432.00
55151;DHT22;41041;43.162;20.538;2023-08-30T08:01:17;588.80;2432.00
55151;DHT22;41041;43.162;20.538;2023-08-30T08:03:44;588.90;2432.00
55151;DHT22;41041;43.162;20.538;2023-08-30T08:06:09;589.00;2432.00
55151;DHT22;41041;43.162;20.538;2023-08-30T08:08:35;588.90;2432.00
55151;DHT22;41041;43.162;20.538;2023-08-30T08:11:18;588.90;2432.00
55151;DHT22;41041;43.162;20.538;2023-08-30T08:13:44;588.90;2432.00
55151;DHT22;41041;43.162;20.538;2023-08-30T08:16:10;588.90;2432.00
55151;DHT22;41041;43.162;20.538;2023-08-30T08:18:36;588.90;2432.00
55151;DHT22;41041;43.162;20.538;2023-08-30T08:21:03;588.90;2432.00
55151;DHT22;41041;43.162;20.538;2023-08-30T08:23:29;589.00;2432.00
55151;DHT22;41041;43.162;20.538;2023-08-30T08:25:59;589.00;2432.00
55151;DHT22;41041;43.162;20.538;2023-08-30T08:28:25;589.10;2432.00
55151;DHT22;41041;43.162;20.538;2023-08-30T08:30:51;589.20;2432.00
55151;DHT22;41041;43.162;20.538;2023-08-30T08:33:17;589.30;2432.00
55151;DHT22;41041;43.162;20.538;2023-08-30T08:35:44;589.60;2432.00
55151;DHT22;41041;43.162;20.538;2023-08-30T08:40:39;614.60;2432.00
55151;DHT22;41041;43.162;20.538;2023-08-30T08:43:05;614.40;2432.00
55151;DHT22;41041;43.162;20.538;2023-08-30T08:45:38;614.40;2432.00
55151;DHT22;41041;43.162;20.538;2023-08-30T08:48:04;614.40;2432.00
55151;DHT22;41041;43.162;20.538;2023-08-30T08:50:34;614.50;2432.00
55151;DHT22;41041;43.162;20.538;2023-08-30T08:53:02;614.60;2432.00
55151;DHT22;41041;43.162;20.538;2023-08-30T08:55:29;614.60;2432.00
55151;DHT22;41041;43.162;20.538;2023-08-30T08:57:58;614.70;2432.00
55151;DHT22;41041;43.162;20.538;2023-08-30T09:00:25;614.70;2432.00
55151;DHT22;41041;43.162;20.538;2023-08-30T09:02:53;614.70;2432.00
55151;DHT22;41041;43.162;20.538;2023-08-30T09:05:19;614.80;2432.00
55151;DHT22;41041;43.162;20.538;2023-08-30T09:07:45;614.80;2432.00
55151;DHT22;41041;43.162;20.538;2023-08-30T09:10:13;614.90;2432.00
55151;DHT22;41041;43.162;20.538;2023-08-30T09:12:39;615.00;2432.00
55151;DHT22;41041;43.162;20.538;2023-08-30T09:15:05;615.00;2432.00
55151;DHT22;41041;43.162;20.538;2023-08-30T09:17:41;615.00;2432.00
55151;DHT22;41041;43.162;20.538;2023-08-30T09:20:09;615.00;2432.00
55151;DHT22;41041;43.162;20.538;2023-08-30T09:22:40;615.00;2432.00
55151;DHT22;41041;43.162;20.538;2023-08-30T09:25:10;614.90;2432.00
55151;DHT22;41041;43.162;20.538;2023-08-30T09:27:36;614.90;2432.00
55151;DHT22;41041;43.162;20.538;2023-08-30T09:30:07;614.80;2432.00
55151;DHT22;41041;43.162;20.538;2023-08-30T09:32:41;614.90;2432.00
55151;DHT22;41041;43.162;20.538;2023-08-30T09:35:08;614.90;2432.00
55151;DHT22;41041;43.162;20.538;2023-08-30T09:37:34;614.90;2432.00
55151;DHT22;41041;43.162;20.538;2023-08-30T09:40:00;615.00;2432.00
55151;DHT22;41041;43.162;20.538;2023-08-30T09:42:34;614.90;2432.00
55151;DHT22;41041;43.162;20.538;2023-08-30T09:45:01;615.00;2432.00
55151;DHT22;41041;43.162;20.538;2023-08-30T09:47:27;615.10;2432.00
55151;DHT22;41041;43.162;20.538;2023-08-30T09:49:55;615.20;2432.00
55151;DHT22;41041;43.162;20.538;2023-08-30T09:52:24;615.30;2432.00
55151;DHT22;41041;43.162;20.538;2023-08-30T09:54:51;640.00;2432.00
55151;DHT22;41041;43.162;20.538;2023-08-30T09:57:19;640.10;2432.00
55151;DHT22;41041;43.162;20.538;2023-08-30T09:59:46;640.20;2432.00
55151;DHT22;41041;43.162;20.538;2023-08-30T10:02:14;640.30;2432.00
55151;DHT22;41041;43.162;20.538;2023-08-30T10:04:40;640.40;2432.00
55151;DHT22;41041;43.162;20.538;2023-08-30T10:07:07;640.50;2432.00
55151;DHT22;41041;43.162;20.538;2023-08-30T10:09:33;640.60;2432.00
55151;DHT22;41041;43.162;20.538;2023-08-30T10:12:00;640.60;2432.00
55151;DHT22;41041;43.162;20.538;2023-08-30T10:14:27;640.70;2380.80
55151;DHT22;41041;43.162;20.538;2023-08-30T10:17:01;640.80;2329.60
55151;DHT22;41041;43.162;20.538;2023-08-30T10:19:28;640.90;2252.80
55151;DHT22;41041;43.162;20.538;2023-08-30T10:22:05;665.70;2304.00
55151;DHT22;41041;43.162;20.538;2023-08-30T10:24:59;666.00;2201.60
55151;DHT22;41041;43.162;20.538;2023-08-30T10:27:26;666.10;2227.20
55151;DHT22;41041;43.162;20.538;2023-08-30T10:29:52;666.10;2201.60
55151;DHT22;41041;43.162;20.538;2023-08-30T10:32:28;666.00;2227.20
55151;DHT22;41041;43.162;20.538;2023-08-30T10:34:54;665.90;2176.00
55151;DHT22;41041;43.162;20.538;2023-08-30T10:37:27;665.60;2176.00
55151;DHT22;41041;43.162;20.538;2023-08-30T10:39:53;665.60;2201.60
55151;DHT22;41041;43.162;20.538;2023-08-30T10:42:29;665.80;2227.20
55151;DHT22;41041;43.162;20.538;2023-08-30T10:45:03;665.90;2201.60
55151;DHT22;41041;43.162;20.538;2023-08-30T10:47:37;665.90;2150.40
55151;DHT22;41041;43.162;20.538;2023-08-30T10:50:32;665.80;2176.00
55151;DHT22;41041;43.162;20.538;2023-08-30T10:52:58;665.90;2176.00
55151;DHT22;41041;43.162;20.538;2023-08-30T10:55:24;666.10;2124.80
55151;DHT22;41041;43.162;20.538;2023-08-30T10:58:15;666.20;2124.80
55151;DHT22;41041;43.162;20.538;2023-08-30T11:00:41;691.20;2150.40
55151;DHT22;41041;43.162;20.538;2023-08-30T11:03:10;691.30;2124.80
55151;DHT22;41041;43.162;20.538;2023-08-30T11:05:36;691.30;2150.40
55151;DHT22;41041;43.162;20.538;2023-08-30T11:08:10;691.40;2073.60
55151;DHT22;41041;43.162;20.538;2023-08-30T11:10:37;691.50;2099.20
55151;DHT22;41041;43.162;20.538;2023-08-30T11:13:05;691.50;2099.20
55151;DHT22;41041;43.162;20.538;2023-08-30T11:15:43;691.50;2022.40
55151;DHT22;41041;43.162;20.538;2023-08-30T11:18:08;691.50;2022.40
55151;DHT22;41041;43.162;20.538;2023-08-30T11:20:34;691.40;1996.80
55151;DHT22;41041;43.162;20.538;2023-08-30T11:23:02;691.30;1996.80
55151;DHT22;41041;43.162;20.538;2023-08-30T11:25:28;691.30;1920.00
55151;DHT22;41041;43.162;20.538;2023-08-30T11:28:04;691.40;1996.80
55151;DHT22;41041;43.162;20.538;2023-08-30T11:30:30;691.50;1945.60
55151;DHT22;41041;43.162;20.538;2023-08-30T11:32:57;691.50;1945.60
55151;DHT22;41041;43.162;20.538;2023-08-30T11:35:23;691.50;1894.40
55151;DHT22;41041;43.162;20.538;2023-08-30T11:37:49;691.70;1996.80
55151;DHT22;41041;43.162;20.538;2023-08-30T11:40:15;691.70;1996.80
55151;DHT22;41041;43.162;20.538;2023-08-30T11:42:43;691.50;2022.40
55151;DHT22;41041;43.162;20.538;2023-08-30T11:45:09;691.30;2022.40
55151;DHT22;41041;43.162;20.538;2023-08-30T11:47:35;691.30;2073.60
55151;DHT22;41041;43.162;20.538;2023-08-30T11:50:01;666.50;2048.00
55151;DHT22;41041;43.162;20.538;2023-08-30T11:52:27;666.50;2022.40
55151;DHT22;41041;43.162;20.538;2023-08-30T11:54:54;666.40;2048.00
55151;DHT22;41041;43.162;20.538;2023-08-30T11:57:20;666.40;1996.80
55151;DHT22;41041;43.162;20.538;2023-08-30T11:59:46;666.50;2073.60
55151;DHT22;41041;43.162;20.538;2023-08-30T12:02:23;666.40;2048.00
55151;DHT22;41041;43.162;20.538;2023-08-30T12:04:50;666.40;2099.20
55151;DHT22;41041;43.162;20.538;2023-08-30T12:07:23;666.30;2099.20
55151;DHT22;41041;43.162;20.538;2023-08-30T12:09:52;666.20;2073.60
55151;DHT22;41041;43.162;20.538;2023-08-30T12:12:18;666.30;2099.20
55151;DHT22;41041;43.162;20.538;2023-08-30T12:14:44;666.20;2073.60
55151;DHT22;41041;43.162;20.538;2023-08-30T12:17:20;666.40;1971.20
55151;DHT22;41041;43.162;20.538;2023-08-30T12:19:46;666.50;2022.40
55151;DHT22;41041;43.162;20.538;2023-08-30T12:22:11;691.20;2099.20
55151;DHT22;41041;43.162;20.538;2023-08-30T12:24:44;691.20;2022.40
55151;DHT22;41041;43.162;20.538;2023-08-30T12:27:10;691.20;2048.00
55151;DHT22;41041;43.162;20.538;2023-08-30T12:29:36;666.50;1996.80
55151;DHT22;41041;43.162;20.538;2023-08-30T12:32:02;666.50;2022.40
55151;DHT22;41041;43.162;20.538;2023-08-30T12:34:28;666.50;1945.60
55151;DHT22;41041;43.162;20.538;2023-08-30T12:36:54;666.50;1971.20
55151;DHT22;41041;43.162;20.538;2023-08-30T12:39:20;666.50;1920.00
55151;DHT22;41041;43.162;20.538;2023-08-30T12:41:46;666.50;1971.20
55151;DHT22;41041;43.162;20.538;2023-08-30T12:44:12;691.20;1971.20
55151;DHT22;41041;43.162;20.538;2023-08-30T12:46:38;691.30;1894.40
55151;DHT22;41041;43.162;20.538;2023-08-30T12:49:04;691.40;1945.60
55151;DHT22;41041;43.162;20.538;2023-08-30T12:51:31;691.50;1868.80
55151;DHT22;41041;43.162;20.538;2023-08-30T12:53:57;691.50;1920.00
55151;DHT22;41041;43.162;20.538;2023-08-30T12:56:23;691.30;1920.00
55151;DHT22;41041;43.162;20.538;2023-08-30T12:58:48;691.30;1868.80
55151;DHT22;41041;43.162;20.538;2023-08-30T13:01:14;691.50;1894.40
55151;DHT22;41041;43.162;20.538;2023-08-30T13:03:40;691.50;1843.20
55151;DHT22;41041;43.162;20.538;2023-08-30T13:06:06;691.60;1868.80
55151;DHT22;41041;43.162;20.538;2023-08-30T13:08:31;691.60;1868.80
55151;DHT22;41041;43.162;20.538;2023-08-30T13:10:59;691.80;1894.40
55151;DHT22;41041;43.162;20.538;2023-08-30T13:30:33;717.40;1715.20
55151;DHT22;41041;43.162;20.538;2023-08-30T13:35:29;717.70;1715.20
55151;DHT22;41041;43.162;20.538;2023-08-30T13:37:55;717.40;1715.20
55151;DHT22;41041;43.162;20.538;2023-08-30T13:40:34;717.30;1766.40
55151;DHT22;41041;43.162;20.538;2023-08-30T13:43:00;717.30;1740.80
55151;DHT22;41041;43.162;20.538;2023-08-30T13:45:25;717.00;1740.80
55151;DHT22;41041;43.162;20.538;2023-08-30T13:47:51;716.90;1817.60
55151;DHT22;41041;43.162;20.538;2023-08-30T13:55:23;716.90;1792.00
55151;DHT22;41041;43.162;20.538;2023-08-30T13:57:49;692.10;1792.00
55151;DHT22;41041;43.162;20.538;2023-08-30T14:00:16;692.00;1766.40
55151;DHT22;41041;43.162;20.538;2023-08-30T14:02:41;692.10;1817.60
55151;DHT22;41041;43.162;20.538;2023-08-30T14:05:08;716.80;1817.60
55151;DHT22;41041;43.162;20.538;2023-08-30T14:07:34;716.80;1817.60
55151;DHT22;41041;43.162;20.538;2023-08-30T14:10:00;692.10;1817.60
55151;DHT22;41041;43.162;20.538;2023-08-30T14:12:27;716.80;1817.60
55151;DHT22;41041;43.162;20.538;2023-08-30T14:14:53;716.80;1843.20
55151;DHT22;41041;43.162;20.538;2023-08-30T14:17:20;692.10;1843.20
55151;DHT22;41041;43.162;20.538;2023-08-30T14:19:45;692.00;1868.80
55151;DHT22;41041;43.162;20.538;2023-08-30T14:22:11;691.80;1868.80
55151;DHT22;41041;43.162;20.538;2023-08-30T14:24:37;691.80;1894.40
55151;DHT22;41041;43.162;20.538;2023-08-30T14:27:04;691.70;1894.40
55151;DHT22;41041;43.162;20.538;2023-08-30T14:29:29;691.60;1894.40
55151;DHT22;41041;43.162;20.538;2023-08-30T14:31:55;691.40;1868.80
55151;DHT22;41041;43.162;20.538;2023-08-30T14:34:21;691.40;1868.80
55151;DHT22;41041;43.162;20.538;2023-08-30T14:36:46;691.30;1868.80
55151;DHT22;41041;43.162;20.538;2023-08-30T14:39:14;691.20;1894.40
55151;DHT22;41041;43.162;20.538;2023-08-30T14:41:39;691.30;1894.40
55151;DHT22;41041;43.162;20.538;2023-08-30T14:44:06;691.20;1868.80
55151;DHT22;41041;43.162;20.538;2023-08-30T14:46:33;666.50;1843.20
55151;DHT22;41041;43.162;20.538;2023-08-30T14:48:59;666.40;1843.20
55151;DHT22;41041;43.162;20.538;2023-08-30T14:51:25;691.20;1843.20
55151;DHT22;41041;43.162;20.538;2023-08-30T14:53:50;691.20;1843.20
55151;DHT22;41041;43.162;20.538;2023-08-30T14:56:16;691.30;1868.80
55151;DHT22;41041;43.162;20.538;2023-08-30T14:58:43;691.30;1868.80
55151;DHT22;41041;43.162;20.538;2023-08-30T15:01:14;691.20;1868.80
55151;DHT22;41041;43.162;20.538;2023-08-30T15:03:41;691.20;1868.80
55151;DHT22;41041;43.162;20.538;2023-08-30T15:06:06;666.50;1868.80
55151;DHT22;41041;43.162;20.538;2023-08-30T15:08:32;666.40;1894.40
55151;DHT22;41041;43.162;20.538;2023-08-30T15:10:58;666.30;1920.00
55151;DHT22;41041;43.162;20.538;2023-08-30T15:13:24;666.30;1920.00
55151;DHT22;41041;43.162;20.538;2023-08-30T15:15:49;666.20;1920.00
55151;DHT22;41041;43.162;20.538;2023-08-30T15:18:22;666.20;1945.60
55151;DHT22;41041;43.162;20.538;2023-08-30T15:20:51;666.20;1971.20
55151;DHT22;41041;43.162;20.538;2023-08-30T15:23:18;666.10;1971.20
55151;DHT22;41041;43.162;20.538;2023-08-30T15:25:49;666.10;1996.80
55151;DHT22;41041;43.162;20.538;2023-08-30T15:28:15;666.10;1996.80
55151;DHT22;41041;43.162;20.538;2023-08-30T15:30:42;666.00;2022.40
55151;DHT22;41041;43.162;20.538;2023-08-30T15:33:08;666.00;2022.40
55151;DHT22;41041;43.162;20.538;2023-08-30T15:35:43;666.00;2022.40